Time;durP1;ratioP1;P1;durP2;ratioP2;P2;SDS_P1;SDS_P2;PMS_P1;PMS_P2;Temp;Humidity;BMP_temperature;BMP_pressure;BME280_temperature;BME280_humidity;BME280_pressure;Samples;Min_cycle;Max_cycle;Signal;HPM_P1;HPM_P2
2023/08/20 00:02:16;;;;;;;7.43;6.72;;;;;;;19.95;63.69;96629.28;5052540;28;20056;-68
2023/08/20 00:04:47;;;;;;;9.10;6.03;;;;;;;19.90;63.39;96638.56;5052542;28;20102;-68
2023/08/20 00:07:15;;;;;;;7.78;6.85;;;;;;;19.91;64.04;96630.47;5053077;28;20558;-68
2023/08/20 00:09:43;;;;;;;9.88;6.78;;;;;;;19.88;64.13;96621.88;5056400;28;20119;-68
2023/08/20 00:12:10;;;;;;;7.18;6.53;;;;;;;19.81;64.13;96622.34;5056315;28;20483;-68
2023/08/20 00:15:05;;;;;;;7.95;6.50;;;;;;;19.65;64.77;96633.25;5056310;28;20056;-68
2023/08/20 00:17:33;;;;;;;8.00;6.18;;;;;;;19.54;65.17;96619.94;5042318;28;20453;-68
2023/08/20 00:20:03;;;;;;;8.10;6.78;;;;;;;19.39;65.20;96625.38;5055936;28;20437;-68
2023/08/20 00:22:32;;;;;;;8.40;6.25;;;;;;;19.36;65.33;96616.81;5056075;28;20052;-68
2023/08/20 00:24:59;;;;;;;8.35;6.22;;;;;;;19.27;65.52;96621.00;5056170;28;20482;-68
2023/08/20 00:27:26;;;;;;;8.73;6.85;;;;;;;19.13;65.90;96606.94;5055979;28;20041;-68
2023/08/20 00:29:53;;;;;;;9.25;6.82;;;;;;;19.19;66.42;96609.13;5055990;28;20495;-68
2023/08/20 00:32:21;;;;;;;9.75;6.57;;;;;;;19.16;65.98;96606.72;5055990;28;20136;-68
2023/08/20 00:34:48;;;;;;;6.95;6.25;;;;;;;19.17;65.93;96616.34;5055893;28;20081;-68
2023/08/20 00:37:15;;;;;;;7.75;6.07;;;;;;;19.20;66.07;96612.63;5055790;28;20056;-68
2023/08/20 00:39:43;;;;;;;8.30;6.95;;;;;;;19.26;65.63;96608.69;5055830;28;20103;-68
2023/08/20 00:42:10;;;;;;;7.40;6.70;;;;;;;19.21;65.84;96606.38;5055708;28;20383;-68
2023/08/20 00:44:37;;;;;;;6.78;6.05;;;;;;;19.22;66.00;96604.56;5055659;28;20049;-68
2023/08/20 00:47:06;;;;;;;7.10;6.40;;;;;;;19.19;66.12;96605.63;5055598;28;20091;-68
2023/08/20 00:49:35;;;;;;;7.13;6.43;;;;;;;19.19;66.09;96609.13;5055697;28;20077;-68
2023/08/20 00:52:03;;;;;;;9.73;6.70;;;;;;;19.17;66.29;96607.53;5055532;28;20446;-68
2023/08/20 00:54:33;;;;;;;7.30;6.50;;;;;;;19.18;66.12;96609.25;5055435;28;20045;-68
2023/08/20 00:57:02;;;;;;;7.87;6.93;;;;;;;19.19;65.94;96606.50;5055526;28;20057;-68
2023/08/20 00:59:31;;;;;;;6.82;6.13;;;;;;;19.21;66.09;96595.78;5055260;28;20380;-68
2023/08/20 01:01:58;;;;;;;6.90;6.30;;;;;;;19.19;66.05;96592.38;5055414;28;20079;-68
2023/08/20 01:04:25;;;;;;;9.73;6.35;;;;;;;19.12;66.12;96592.00;5055292;28;20527;-68
2023/08/20 01:07:02;;;;;;;10.00;6.30;;;;;;;19.08;65.90;96594.97;5055296;28;20124;-68
2023/08/20 01:09:38;;;;;;;7.60;6.35;;;;;;;19.04;66.43;96591.63;5055216;28;20132;-68
2023/08/20 01:12:07;;;;;;;8.80;6.65;;;;;;;18.99;66.28;96588.50;5055147;28;20136;-67
2023/08/20 01:14:34;;;;;;;10.95;6.50;;;;;;;18.98;66.27;96600.03;5055141;28;20053;-68
2023/08/20 01:17:01;;;;;;;7.28;6.25;;;;;;;18.96;66.42;96594.00;5055068;28;20561;-69
2023/08/20 01:19:28;;;;;;;12.48;6.65;;;;;;;18.94;66.20;96588.81;5054257;28;20092;-69
2023/08/20 01:22:14;;;;;;;7.20;6.50;;;;;;;18.85;66.18;96589.47;5055118;28;20463;-68
2023/08/20 01:24:52;;;;;;;9.02;6.68;;;;;;;18.72;66.36;96589.50;5055006;28;20186;-68
2023/08/20 01:27:36;;;;;;;7.18;6.47;;;;;;;18.65;66.68;96591.72;5054921;28;20045;-69
2023/08/20 01:30:06;;;;;;;11.77;6.90;;;;;;;18.61;66.59;96593.75;5054846;28;20056;-68
2023/08/20 01:32:35;;;;;;;12.48;7.43;;;;;;;18.60;66.93;96585.91;5054826;28;20049;-69
2023/08/20 01:35:02;;;;;;;7.97;6.32;;;;;;;18.59;67.35;96587.69;5054765;28;20049;-69
2023/08/20 01:37:29;;;;;;;10.77;6.50;;;;;;;18.58;67.03;96585.16;5054691;28;20049;-68
2023/08/20 01:39:56;;;;;;;8.25;7.28;;;;;;;18.50;67.23;96583.91;5054504;28;20092;-69
2023/08/20 01:42:23;;;;;;;7.32;6.55;;;;;;;18.50;67.26;96591.84;5054790;28;20131;-68
2023/08/20 01:44:50;;;;;;;9.60;7.57;;;;;;;18.51;67.29;96584.75;5054869;28;20044;-69
2023/08/20 01:47:18;;;;;;;7.90;7.18;;;;;;;18.53;67.53;96586.34;5054575;28;20053;-69
2023/08/20 01:49:45;;;;;;;6.70;6.10;;;;;;;18.55;67.80;96584.41;5054461;28;20044;-69
2023/08/20 01:52:12;;;;;;;8.55;6.93;;;;;;;18.55;67.40;96581.75;5054631;28;20095;-69
2023/08/20 01:54:39;;;;;;;7.47;6.63;;;;;;;18.53;67.47;96583.69;5054479;28;20045;-69
2023/08/20 01:57:06;;;;;;;8.77;6.68;;;;;;;18.55;67.47;96575.63;5054366;28;20514;-69
2023/08/20 01:59:33;;;;;;;7.40;6.70;;;;;;;18.59;67.22;96577.09;5054220;28;20083;-69
2023/08/20 02:02:00;;;;;;;7.80;6.80;;;;;;;18.62;67.26;96578.69;5054047;28;20498;-69
2023/08/20 02:04:28;;;;;;;7.60;6.90;;;;;;;18.65;67.45;96575.81;5054328;28;20041;-69
2023/08/20 02:06:55;;;;;;;7.82;6.93;;;;;;;18.66;67.48;96585.47;5054100;28;20047;-69
2023/08/20 02:09:22;;;;;;;8.80;7.82;;;;;;;18.67;66.92;96582.69;5054203;28;20053;-69
2023/08/20 02:11:49;;;;;;;7.75;7.05;;;;;;;18.67;66.99;96580.03;5054178;28;20123;-69
2023/08/20 02:14:16;;;;;;;7.28;6.32;;;;;;;18.67;67.25;96579.22;5053973;28;20391;-69
2023/08/20 02:16:43;;;;;;;7.75;7.07;;;;;;;18.65;67.31;96578.47;5053847;28;20052;-69
2023/08/20 02:19:10;;;;;;;7.53;6.63;;;;;;;18.60;67.92;96573.50;5053732;28;20127;-69
2023/08/20 02:21:39;;;;;;;11.75;7.40;;;;;;;18.58;67.52;96583.38;5054086;28;20132;-69
2023/08/20 02:24:06;;;;;;;8.55;7.63;;;;;;;18.55;67.50;96572.97;5054100;28;20074;-69
2023/08/20 02:26:33;;;;;;;8.55;6.65;;;;;;;18.57;67.21;96581.66;5053831;28;20110;-69
2023/08/20 02:29:00;;;;;;;7.55;6.78;;;;;;;18.49;67.81;96576.06;5053541;28;20135;-69
2023/08/20 02:31:27;;;;;;;8.30;7.55;;;;;;;18.46;67.99;96579.78;5052741;28;20490;-69
2023/08/20 02:33:54;;;;;;;8.05;7.20;;;;;;;18.38;68.35;96576.78;5053728;28;20052;-69
2023/08/20 02:36:21;;;;;;;8.02;7.20;;;;;;;18.27;68.43;96581.03;5053667;28;20401;-69
2023/08/20 02:38:50;;;;;;;11.38;7.10;;;;;;;18.23;68.41;96576.91;5053523;28;20505;-69
2023/08/20 02:41:17;;;;;;;8.52;6.75;;;;;;;18.23;68.34;96586.63;5053403;28;20064;-69
2023/08/20 02:43:44;;;;;;;9.80;7.30;;;;;;;18.23;68.32;96584.84;5053452;28;20080;-69
2023/08/20 02:46:11;;;;;;;7.70;6.72;;;;;;;18.17;68.64;96591.41;5053446;28;20401;-69
2023/08/20 02:48:38;;;;;;;8.98;7.43;;;;;;;18.11;68.55;96590.97;5053354;28;20052;-69
2023/08/20 02:51:05;;;;;;;9.50;6.50;;;;;;;18.08;68.73;96589.34;5053386;28;20126;-69
2023/08/20 02:53:32;;;;;;;8.07;7.28;;;;;;;18.02;69.21;96587.13;5053361;28;20467;-69
2023/08/20 02:56:02;;;;;;;7.60;6.80;;;;;;;18.01;68.72;96590.72;5053149;28;20403;-69
2023/08/20 02:58:29;;;;;;;8.57;7.03;;;;;;;18.03;68.88;96594.94;5053340;28;20084;-69
2023/08/20 03:00:57;;;;;;;8.20;6.88;;;;;;;18.04;69.08;96594.03;5053197;28;20056;-69
2023/08/20 03:03:24;;;;;;;9.77;7.07;;;;;;;18.01;68.55;96588.94;5053402;28;20049;-69
2023/08/20 03:05:51;;;;;;;11.73;7.10;;;;;;;17.94;68.84;96590.28;5053143;28;20049;-69
2023/08/20 03:08:18;;;;;;;8.57;7.72;;;;;;;17.88;69.05;96590.72;5053043;28;20494;-69
2023/08/20 03:10:45;;;;;;;8.95;7.47;;;;;;;17.86;69.26;96592.59;5053008;28;20144;-69
2023/08/20 03:13:14;;;;;;;8.30;7.07;;;;;;;17.85;69.36;96593.56;5053105;28;20454;-69
2023/08/20 03:15:41;;;;;;;7.68;6.93;;;;;;;17.76;69.02;96595.03;5053011;28;20094;-69
2023/08/20 03:18:08;;;;;;;7.65;6.95;;;;;;;17.72;68.99;96590.84;5052945;28;20059;-69
2023/08/20 03:20:35;;;;;;;8.40;7.60;;;;;;;17.65;69.45;96586.00;5052615;28;20114;-69
2023/08/20 03:23:02;;;;;;;9.35;7.57;;;;;;;17.62;69.79;96590.63;5053031;28;20120;-69
2023/08/20 03:25:29;;;;;;;8.10;7.30;;;;;;;17.63;69.93;96593.19;5052912;28;20044;-69
2023/08/20 03:27:56;;;;;;;7.97;7.18;;;;;;;17.62;69.92;96588.84;5053193;28;20044;-69
2023/08/20 03:30:24;;;;;;;7.78;7.03;;;;;;;17.62;69.78;96594.13;5052889;28;20057;-69
2023/08/20 03:32:51;;;;;;;8.98;7.30;;;;;;;17.58;70.13;96589.16;5053039;28;20106;-69
2023/08/20 03:35:18;;;;;;;8.00;7.20;;;;;;;17.56;70.09;96599.81;5052790;28;20132;-69
2023/08/20 03:37:45;;;;;;;8.30;7.53;;;;;;;17.54;70.31;96607.00;5052748;28;20076;-69
2023/08/20 03:40:13;;;;;;;8.82;6.68;;;;;;;17.54;69.93;96601.72;5052604;28;20049;-69
2023/08/20 03:42:40;;;;;;;8.05;6.63;;;;;;;17.57;69.98;96598.88;5055787;28;20049;-69
2023/08/20 03:45:08;;;;;;;9.40;7.13;;;;;;;17.64;70.09;96596.69;5056763;28;20045;-69
2023/08/20 03:47:36;;;;;;;7.60;6.90;;;;;;;17.70;70.01;96600.72;5056848;28;20045;-69
2023/08/20 03:50:03;;;;;;;8.45;6.70;;;;;;;17.72;70.05;96599.66;5056795;28;20120;-69
2023/08/20 03:52:31;;;;;;;7.60;6.82;;;;;;;17.72;69.64;96602.31;5056619;28;20045;-69
2023/08/20 03:54:57;;;;;;;7.40;6.70;;;;;;;17.75;69.90;96604.75;5056668;28;20562;-69
2023/08/20 03:57:24;;;;;;;7.25;6.55;;;;;;;17.78;69.61;96601.91;5056494;28;20135;-69
2023/08/20 03:59:51;;;;;;;8.63;7.40;;;;;;;17.80;69.82;96599.16;5056447;28;20075;-69
2023/08/20 04:02:18;;;;;;;7.65;6.90;;;;;;;17.81;69.73;96598.19;5056377;28;20108;-69
2023/08/20 04:04:47;;;;;;;6.55;5.93;;;;;;;17.88;70.04;96596.00;5056347;28;20041;-69
2023/08/20 04:07:14;;;;;;;9.25;6.93;;;;;;;18.08;69.64;96593.78;5056368;28;20087;-69
2023/08/20 04:09:42;;;;;;;7.80;7.00;;;;;;;18.26;69.11;96605.81;5056371;28;20049;-69
2023/08/20 04:12:09;;;;;;;7.85;6.25;;;;;;;18.42;68.53;96604.75;5056455;28;20068;-69
2023/08/20 04:14:36;;;;;;;7.70;6.45;;;;;;;18.51;68.67;96603.28;5056364;28;20045;-69
2023/08/20 04:17:03;;;;;;;6.82;6.13;;;;;;;18.53;68.29;96612.81;5056175;28;20509;-69
2023/08/20 04:19:30;;;;;;;8.55;6.72;;;;;;;18.58;68.54;96609.84;5055952;28;20064;-69
2023/08/20 04:21:59;;;;;;;6.80;6.20;;;;;;;18.66;68.28;96610.16;5056091;28;20049;-69
2023/08/20 04:24:26;;;;;;;7.28;6.05;;;;;;;18.77;68.46;96611.19;5056100;28;20045;-69
2023/08/20 04:26:53;;;;;;;7.07;6.38;;;;;;;18.90;68.17;96606.72;5055949;28;20565;-69
2023/08/20 04:29:19;;;;;;;7.15;5.78;;;;;;;19.17;68.53;96607.53;5056169;28;20548;-69
2023/08/20 04:31:47;;;;;;;9.82;5.90;;;;;;;19.61;68.11;96609.72;5055889;28;20103;-69
2023/08/20 04:34:14;;;;;;;7.88;6.30;;;;;;;20.13;66.39;96614.75;5056134;28;20045;-69
2023/08/20 04:36:41;;;;;;;6.05;5.55;;;;;;;20.74;64.54;96613.63;5056031;28;20044;-69
2023/08/20 04:39:10;;;;;;;7.70;5.43;;;;;;;21.31;62.93;96607.47;5055805;28;20491;-69
2023/08/20 04:41:37;;;;;;;7.90;6.03;;;;;;;21.77;61.71;96605.56;5055831;28;20044;-69
2023/08/20 04:44:05;;;;;;;8.77;5.15;;;;;;;22.25;59.38;96615.84;5055749;28;20056;-69
2023/08/20 04:46:32;;;;;;;6.05;5.30;;;;;;;22.71;58.51;96617.28;5055787;28;20049;-69
2023/08/20 04:48:59;;;;;;;5.57;5.07;;;;;;;23.18;56.71;96613.22;5055871;28;20048;-69
2023/08/20 04:51:26;;;;;;;9.23;4.88;;;;;;;23.66;56.48;96612.66;5055735;28;20540;-69
2023/08/20 04:53:53;;;;;;;5.55;5.05;;;;;;;24.20;56.08;96614.94;5054904;28;20490;-69
2023/08/20 04:56:21;;;;;;;4.85;4.32;;;;;;;24.65;54.74;96609.91;5055552;28;20128;-69
2023/08/20 04:58:48;;;;;;;5.75;5.25;;;;;;;25.08;53.06;96615.69;5055475;28;20474;-69
2023/08/20 05:01:16;;;;;;;5.70;4.95;;;;;;;25.51;52.85;96605.28;5055624;28;20057;-69
2023/08/20 05:03:43;;;;;;;5.65;4.80;;;;;;;25.86;51.74;96611.69;5055355;28;20053;-70
2023/08/20 05:06:10;;;;;;;5.47;4.43;;;;;;;26.21;50.70;96609.13;5055569;28;20049;-69
2023/08/20 05:08:37;;;;;;;4.97;4.57;;;;;;;26.47;50.17;96608.34;5055154;28;20045;-69
2023/08/20 05:11:04;;;;;;;5.10;4.43;;;;;;;26.71;49.44;96612.19;5055118;28;20060;-69
2023/08/20 05:13:33;;;;;;;5.55;4.57;;;;;;;27.00;48.88;96618.22;5055086;28;20509;-69
2023/08/20 05:16:00;;;;;;;7.18;4.40;;;;;;;27.21;43.66;96619.66;5055117;28;20053;-69
2023/08/20 05:18:27;;;;;;;6.53;4.47;;;;;;;27.09;43.25;96619.09;5055193;28;20045;-69
2023/08/20 05:20:54;;;;;;;6.72;4.63;;;;;;;27.12;45.03;96619.59;5054846;28;20183;-69
2023/08/20 05:23:23;;;;;;;8.80;4.80;;;;;;;27.33;44.29;96620.19;5054994;28;20055;-69
2023/08/20 05:25:50;;;;;;;5.65;4.80;;;;;;;27.28;41.95;96625.19;5054864;28;20085;-69
2023/08/20 05:28:18;;;;;;;9.15;5.05;;;;;;;27.21;44.04;96633.88;5054861;28;20091;-69
2023/08/20 05:30:56;;;;;;;8.80;4.65;;;;;;;27.38;41.25;96625.91;5054988;28;20048;-68
2023/08/20 05:33:23;;;;;;;11.90;4.93;;;;;;;27.61;41.77;96625.31;5054814;28;20544;-69
2023/08/20 05:35:50;;;;;;;8.50;4.85;;;;;;;27.90;42.60;96629.41;5054844;28;20095;-69
2023/08/20 05:38:18;;;;;;;6.75;4.57;;;;;;;28.33;45.23;96628.44;5054620;28;20045;-69
2023/08/20 05:40:45;;;;;;;6.85;4.97;;;;;;;28.84;42.38;96622.78;5054616;28;20562;-69
2023/08/20 05:43:12;;;;;;;6.93;4.55;;;;;;;29.34;40.78;96627.19;5054895;28;20475;-69
2023/08/20 05:45:39;;;;;;;11.98;4.88;;;;;;;29.92;41.34;96624.22;5054591;28;20175;-69
2023/08/20 05:48:08;;;;;;;6.13;4.70;;;;;;;30.48;41.26;96625.78;5054544;28;20072;-69
2023/08/20 05:50:35;;;;;;;5.45;4.82;;;;;;;30.87;38.97;96621.22;5054383;28;20127;-69
2023/08/20 05:53:02;;;;;;;11.10;4.75;;;;;;;31.27;39.80;96628.16;5054356;28;20517;-69
2023/08/20 05:55:29;;;;;;;5.97;4.63;;;;;;;31.45;37.20;96626.97;5054345;28;20124;-69
2023/08/20 05:57:57;;;;;;;5.72;4.50;;;;;;;31.43;36.60;96632.56;5054327;28;20059;-69
2023/08/20 06:00:24;;;;;;;5.95;4.38;;;;;;;31.47;32.42;96624.91;5054319;28;20091;-69
2023/08/20 06:02:51;;;;;;;7.57;4.53;;;;;;;31.42;34.97;96622.75;5054068;28;20493;-69
2023/08/20 06:05:19;;;;;;;5.30;3.80;;;;;;;31.34;30.83;96625.56;5054351;28;20131;-69
2023/08/20 06:07:47;;;;;;;6.35;4.35;;;;;;;30.94;31.65;96626.69;5054455;28;20136;-69
2023/08/20 06:10:14;;;;;;;8.15;4.60;;;;;;;30.61;31.23;96619.75;5054077;28;20045;-69
2023/08/20 06:12:41;;;;;;;6.18;3.95;;;;;;;30.24;31.84;96619.59;5054017;28;20045;-68
2023/08/20 06:15:09;;;;;;;8.50;4.40;;;;;;;30.37;33.57;96620.84;5054012;28;20049;-68
2023/08/20 06:17:36;;;;;;;3.80;3.50;;;;;;;30.25;32.60;96623.13;5053937;28;20049;-69
2023/08/20 06:20:08;;;;;;;8.10;3.92;;;;;;;30.14;32.51;96621.66;5053784;28;20095;-68
2023/08/20 06:22:36;;;;;;;6.03;3.95;;;;;;;29.84;32.50;96621.56;5053849;28;20066;-68
2023/08/20 06:25:04;;;;;;;6.88;4.05;;;;;;;29.73;32.70;96612.88;5053806;28;20495;-69
2023/08/20 06:27:31;;;;;;;5.30;3.72;;;;;;;29.71;33.17;96620.28;5053898;28;20052;-68
2023/08/20 06:29:59;;;;;;;7.22;3.65;;;;;;;29.92;33.39;96617.97;5053804;28;20152;-68
2023/08/20 06:32:27;;;;;;;4.47;3.97;;;;;;;29.66;33.28;96617.28;5053627;28;20044;-69
2023/08/20 06:34:54;;;;;;;12.82;3.72;;;;;;;29.45;33.81;96618.72;5053629;28;20045;-68
2023/08/20 06:37:21;;;;;;;6.55;4.18;;;;;;;29.43;33.84;96628.81;5053697;28;20045;-68
2023/08/20 06:39:50;;;;;;;3.92;3.42;;;;;;;29.48;33.69;96617.53;5053570;28;20045;-69
2023/08/20 06:42:17;;;;;;;6.43;4.15;;;;;;;29.70;33.38;96625.84;5053441;28;20108;-68
2023/08/20 06:44:44;;;;;;;4.55;4.05;;;;;;;29.47;33.26;96632.84;5053711;28;20060;-68
2023/08/20 06:47:12;;;;;;;8.50;4.25;;;;;;;29.51;34.06;96638.72;5053431;28;20102;-68
2023/08/20 06:49:40;;;;;;;4.38;3.38;;;;;;;29.67;34.27;96637.00;5053804;28;20045;-68
2023/08/20 06:52:07;;;;;;;6.55;4.22;;;;;;;29.94;33.36;96634.78;5053454;28;20053;-68
2023/08/20 06:54:34;;;;;;;5.47;3.55;;;;;;;30.03;33.84;96633.72;5053538;28;20123;-68
2023/08/20 06:57:03;;;;;;;5.10;4.07;;;;;;;30.22;33.51;96639.69;5053403;28;20041;-68
2023/08/20 06:59:31;;;;;;;5.85;3.22;;;;;;;30.35;32.34;96634.50;5053480;28;20098;-68
2023/08/20 07:01:58;;;;;;;4.00;3.42;;;;;;;30.47;32.46;96645.69;5053201;28;20053;-68
2023/08/20 07:04:26;;;;;;;6.82;3.50;;;;;;;30.89;31.77;96637.22;5053498;28;20049;-68
2023/08/20 07:06:53;;;;;;;12.20;3.67;;;;;;;31.02;31.20;96645.50;5053122;28;20080;-68
2023/08/20 07:09:21;;;;;;;6.65;3.47;;;;;;;30.87;30.70;96641.97;5053315;28;20076;-68
2023/08/20 07:11:48;;;;;;;7.80;3.60;;;;;;;30.92;31.76;96650.34;5053151;28;20487;-68
2023/08/20 07:14:17;;;;;;;6.03;3.65;;;;;;;31.01;32.07;96638.44;5052951;28;20088;-68
2023/08/20 07:16:44;;;;;;;4.63;3.08;;;;;;;30.92;30.84;96636.84;5052577;28;20045;-68
2023/08/20 07:19:11;;;;;;;5.85;3.00;;;;;;;31.08;30.40;96641.22;5052689;28;20041;-69
2023/08/20 07:21:38;;;;;;;3.55;3.25;;;;;;;31.05;30.40;96646.13;5052876;28;20417;-68
2023/08/20 07:24:06;;;;;;;3.22;2.90;;;;;;;30.99;29.49;96640.47;5052869;28;20080;-68
2023/08/20 07:26:33;;;;;;;5.80;3.70;;;;;;;31.08;30.30;96629.56;5052879;28;20053;-68
2023/08/20 07:29:01;;;;;;;5.60;3.60;;;;;;;31.16;30.17;96637.59;5053045;28;20049;-68
2023/08/20 07:31:31;;;;;;;9.40;3.20;;;;;;;31.34;30.06;96634.50;5052998;28;20076;-68
2023/08/20 07:34:00;;;;;;;7.25;3.67;;;;;;;31.75;29.95;96632.28;5052769;28;20060;-68
2023/08/20 07:36:28;;;;;;;7.78;3.60;;;;;;;32.10;29.03;96634.31;5052911;28;20053;-68
2023/08/20 07:38:56;;;;;;;7.53;3.38;;;;;;;32.44;29.82;96635.44;5053183;28;20056;-68
2023/08/20 07:41:23;;;;;;;7.15;3.42;;;;;;;32.50;28.32;96631.16;5052736;28;20546;-68
2023/08/20 07:43:51;;;;;;;4.32;2.83;;;;;;;32.58;27.90;96628.31;5053070;28;20045;-68
2023/08/20 07:46:19;;;;;;;5.10;2.90;;;;;;;32.82;26.42;96633.44;5052801;28;20045;-68
2023/08/20 07:48:48;;;;;;;5.70;3.17;;;;;;;32.68;26.94;96625.25;5052589;28;20099;-68
2023/08/20 07:51:15;;;;;;;3.40;2.80;;;;;;;32.50;26.56;96621.16;5052652;28;20071;-68
2023/08/20 07:53:42;;;;;;;6.32;2.92;;;;;;;32.46;26.65;96621.72;5052711;28;20482;-68
2023/08/20 07:56:09;;;;;;;4.65;2.72;;;;;;;32.57;27.65;96623.09;5052981;28;20123;-68
2023/08/20 07:58:37;;;;;;;3.38;3.08;;;;;;;32.49;27.56;96621.38;5052868;28;20045;-68
2023/08/20 08:01:05;;;;;;;3.83;3.05;;;;;;;32.78;27.50;96616.78;5053058;28;20147;-68
2023/08/20 08:03:32;;;;;;;4.47;3.08;;;;;;;32.98;26.58;96616.03;5052644;28;20483;-68
2023/08/20 08:06:01;;;;;;;3.90;2.90;;;;;;;32.87;27.09;96610.16;5053035;28;20045;-68
2023/08/20 08:08:28;;;;;;;4.13;2.65;;;;;;;33.16;26.15;96604.72;5052748;28;20144;-68
2023/08/20 08:10:55;;;;;;;8.10;3.53;;;;;;;32.79;27.01;96604.91;5052497;28;20049;-68
2023/08/20 08:13:24;;;;;;;4.05;3.03;;;;;;;32.96;27.00;96612.72;5052610;28;20047;-68
2023/08/20 08:15:53;;;;;;;5.70;3.60;;;;;;;32.94;26.99;96607.50;5052445;28;20095;-68
2023/08/20 08:18:20;;;;;;;6.13;2.97;;;;;;;33.07;27.77;96608.66;5052470;28;20045;-68
2023/08/20 08:20:47;;;;;;;5.18;3.17;;;;;;;32.76;26.93;96602.59;5052115;28;20052;-68
2023/08/20 08:23:16;;;;;;;6.78;3.28;;;;;;;32.89;28.29;96596.41;5052237;28;20487;-68
2023/08/20 08:25:44;;;;;;;3.55;3.25;;;;;;;33.11;28.15;96590.97;5052281;28;20057;-68
2023/08/20 08:28:11;;;;;;;3.65;3.20;;;;;;;33.04;27.84;96599.03;5052818;28;20049;-68
2023/08/20 08:30:39;;;;;;;6.93;3.70;;;;;;;33.19;27.56;96598.91;5055925;28;20049;-68
2023/08/20 08:33:07;;;;;;;7.55;3.45;;;;;;;33.11;27.86;96597.19;5056240;28;20045;-68
2023/08/20 08:35:34;;;;;;;4.38;3.47;;;;;;;32.97;28.23;96595.44;5056087;28;20102;-68
2023/08/20 08:38:03;;;;;;;3.67;3.20;;;;;;;32.82;28.78;96604.53;5055998;28;20136;-68
2023/08/20 08:40:32;;;;;;;5.78;3.78;;;;;;;32.81;28.86;96596.59;5055920;28;20122;-68
2023/08/20 08:43:00;;;;;;;4.28;3.45;;;;;;;32.94;28.72;96603.94;5056198;28;20118;-68
2023/08/20 08:45:28;;;;;;;6.15;3.47;;;;;;;32.83;28.70;96608.06;5056012;28;20041;-69
2023/08/20 08:47:56;;;;;;;7.00;3.28;;;;;;;33.01;28.32;96605.66;5055777;28;20083;-68
2023/08/20 08:50:23;;;;;;;5.13;3.10;;;;;;;33.05;28.32;96598.00;5055588;28;20057;-68
2023/08/20 08:52:53;;;;;;;5.18;3.42;;;;;;;33.17;28.10;96592.00;5055491;28;20448;-68
2023/08/20 08:55:24;;;;;;;8.38;3.45;;;;;;;33.25;28.42;96595.38;5055455;28;20487;-68
2023/08/20 08:57:53;;;;;;;6.45;3.25;;;;;;;33.32;27.89;96597.28;5055480;28;20048;-68
2023/08/20 09:00:20;;;;;;;6.18;3.00;;;;;;;33.44;27.72;96592.13;5055460;28;20045;-68
2023/08/20 09:02:49;;;;;;;9.63;3.78;;;;;;;33.63;28.21;96594.09;5055196;28;20136;-67
2023/08/20 09:05:16;;;;;;;4.10;3.13;;;;;;;33.48;28.25;96598.78;5055365;28;20083;-68
2023/08/20 09:07:44;;;;;;;4.47;3.33;;;;;;;33.59;27.50;96595.50;5055381;28;20079;-68
2023/08/20 09:10:12;;;;;;;4.80;3.30;;;;;;;33.36;26.91;96583.13;5055358;28;20049;-68
2023/08/20 09:12:40;;;;;;;4.03;3.60;;;;;;;33.32;28.65;96591.88;5055155;28;20469;-68
2023/08/20 09:15:13;;;;;;;4.72;3.10;;;;;;;33.50;28.11;96596.72;5055273;28;20118;-68
2023/08/20 09:17:42;;;;;;;5.82;3.20;;;;;;;33.11;27.82;96590.97;5055022;28;20462;-67
2023/08/20 09:20:10;;;;;;;9.60;3.20;;;;;;;33.12;28.56;96598.03;5055003;28;20053;-67
2023/08/20 09:22:38;;;;;;;5.32;3.35;;;;;;;33.00;28.47;96595.88;5054930;28;20049;-67
2023/08/20 09:25:07;;;;;;;7.22;3.38;;;;;;;33.24;28.24;96574.75;5055043;28;20045;-67
2023/08/20 09:27:41;;;;;;;4.68;3.13;;;;;;;33.06;28.46;96593.41;5054896;28;20044;-68
2023/08/20 09:30:10;;;;;;;6.97;3.28;;;;;;;33.12;27.97;96587.19;5054980;28;20499;-68
2023/08/20 09:32:39;;;;;;;4.70;3.45;;;;;;;33.25;27.70;96598.09;5054923;28;20041;-67
2023/08/20 09:35:07;;;;;;;5.68;2.97;;;;;;;33.03;27.49;96584.66;5054816;28;20045;-67
2023/08/20 09:37:35;;;;;;;7.72;3.13;;;;;;;33.12;28.87;96596.16;5054769;28;20530;-67
2023/08/20 09:40:02;;;;;;;6.50;3.15;;;;;;;33.24;28.59;96587.47;5054361;28;20449;-67
2023/08/20 09:42:32;;;;;;;6.40;3.42;;;;;;;33.58;28.16;96582.13;5054692;28;20136;-68
2023/08/20 09:45:04;;;;;;;7.30;3.92;;;;;;;33.49;27.83;96578.78;5054717;28;20053;-67
2023/08/20 09:47:36;;;;;;;4.72;3.58;;;;;;;33.61;27.60;96584.47;5054514;28;20410;-67
2023/08/20 09:50:11;;;;;;;5.45;3.05;;;;;;;33.32;27.75;96586.44;5054560;28;20139;-67
2023/08/20 09:52:45;;;;;;;4.55;3.20;;;;;;;33.26;27.64;96588.91;5054505;28;20045;-67
2023/08/20 09:55:17;;;;;;;9.50;3.55;;;;;;;33.51;26.99;96585.69;5054547;28;20056;-68
2023/08/20 09:57:48;;;;;;;4.63;2.97;;;;;;;33.49;26.40;96579.63;5054407;28;20099;-67
2023/08/20 10:00:16;;;;;;;3.55;3.25;;;;;;;33.14;26.86;96571.59;5054525;28;20168;-68
2023/08/20 10:02:44;;;;;;;7.95;3.17;;;;;;;33.01;27.70;96581.28;5054207;28;20052;-67
2023/08/20 10:05:15;;;;;;;6.25;2.90;;;;;;;32.84;28.17;96583.47;5054132;28;20080;-68
2023/08/20 10:07:44;;;;;;;13.25;3.97;;;;;;;32.90;27.79;96584.56;5054184;28;20052;-67
2023/08/20 10:10:13;;;;;;;7.38;3.45;;;;;;;32.92;27.85;96581.66;5053220;28;20466;-68
2023/08/20 10:12:41;;;;;;;9.82;3.03;;;;;;;33.06;27.30;96571.75;5054244;28;20080;-67
2023/08/20 10:15:10;;;;;;;3.30;2.97;;;;;;;33.26;27.54;96558.31;5054114;28;20495;-67
2023/08/20 10:17:40;;;;;;;8.65;3.20;;;;;;;33.37;26.36;96583.94;5054027;28;20384;-67
2023/08/20 10:20:10;;;;;;;4.40;3.30;;;;;;;33.39;26.28;96579.19;5054009;28;20511;-68
2023/08/20 10:22:40;;;;;;;9.13;3.70;;;;;;;33.56;26.96;96570.69;5053857;28;20055;-67
2023/08/20 10:25:09;;;;;;;4.65;3.00;;;;;;;33.69;27.01;96564.47;5053887;28;20052;-67
2023/08/20 10:27:39;;;;;;;6.60;3.75;;;;;;;33.46;27.14;96569.19;5053970;28;20076;-67
2023/08/20 10:30:15;;;;;;;9.20;3.97;;;;;;;33.72;27.53;96567.63;5053724;28;20453;-68
2023/08/20 10:32:50;;;;;;;4.65;3.35;;;;;;;33.78;26.20;96568.66;5054099;28;20437;-68
2023/08/20 10:35:19;;;;;;;4.20;3.28;;;;;;;33.78;26.22;96566.81;5053735;28;20053;-67
2023/08/20 10:38:08;;;;;;;8.35;3.40;;;;;;;33.83;26.00;96563.44;5053915;28;20041;-67
2023/08/20 10:40:58;;;;;;;7.68;3.70;;;;;;;33.63;27.42;96548.00;5053578;28;20049;-67
2023/08/20 10:43:29;;;;;;;11.35;3.42;;;;;;;33.63;27.50;96545.28;5053503;28;20049;-67
2023/08/20 10:46:18;;;;;;;4.43;3.25;;;;;;;33.74;27.91;96551.97;5053693;28;20087;-67
2023/08/20 10:48:50;;;;;;;6.47;3.05;;;;;;;33.90;26.49;96545.34;5053402;28;20052;-68
2023/08/20 10:51:20;;;;;;;5.70;2.97;;;;;;;34.10;26.00;96543.66;5052866;28;20483;-67
2023/08/20 10:54:06;;;;;;;9.68;4.00;;;;;;;34.26;26.39;96542.44;5053192;28;20045;-68
2023/08/20 10:56:49;;;;;;;6.32;3.17;;;;;;;34.08;25.01;96540.31;5053333;28;20140;-67
2023/08/20 10:59:18;;;;;;;6.18;3.30;;;;;;;33.91;25.21;96538.00;5053207;28;20059;-67
2023/08/20 11:01:49;;;;;;;3.03;2.47;;;;;;;33.95;24.71;96539.25;5053223;28;20052;-68
2023/08/20 11:04:21;;;;;;;;;;;;;;;33.77;25.48;96546.13;5053532;28;20049;-67
2023/08/20 11:06:53;;;;;;;5.75;3.03;;;;;;;33.69;24.81;96531.94;5053188;28;19925;-67
2023/08/20 11:09:24;;;;;;;6.63;2.80;;;;;;;33.74;24.30;96530.28;5053121;28;20076;-68
2023/08/20 11:11:53;;;;;;;6.45;3.13;;;;;;;33.93;24.24;96527.81;5052959;28;20048;-68
2023/08/20 11:14:22;;;;;;;4.57;2.90;;;;;;;34.07;24.40;96531.31;5052969;28;20144;-67
2023/08/20 11:16:50;;;;;;;6.75;3.53;;;;;;;34.04;24.54;96529.88;5053360;28;20045;-67
2023/08/20 11:19:21;;;;;;;4.45;2.60;;;;;;;33.93;22.37;96526.94;5052793;28;20045;-68
2023/08/20 11:21:51;;;;;;;2.90;2.33;;;;;;;33.98;22.25;96511.72;5053012;28;20384;-67
2023/08/20 11:24:20;;;;;;;5.72;2.88;;;;;;;33.97;24.31;96522.78;5052880;28;20045;-68
2023/08/20 11:26:49;;;;;;;5.85;3.17;;;;;;;34.01;24.48;96530.28;5052991;28;20052;-68
2023/08/20 11:29:20;;;;;;;6.07;2.35;;;;;;;33.81;22.94;96508.59;5052876;28;20045;-67
2023/08/20 11:31:48;;;;;;;6.57;3.03;;;;;;;33.73;24.17;96514.22;5053102;28;20127;-68
2023/08/20 11:34:15;;;;;;;5.47;3.47;;;;;;;33.71;24.85;96516.31;5052915;28;20128;-68
2023/08/20 11:36:43;;;;;;;5.45;3.10;;;;;;;33.81;25.23;96511.31;5052816;28;20048;-67
2023/08/20 11:39:11;;;;;;;5.07;3.05;;;;;;;33.83;24.00;96514.63;5052872;28;20147;-67
2023/08/20 11:41:39;;;;;;;5.55;3.40;;;;;;;34.00;25.58;96500.66;5052846;28;20056;-68